sensor_id;sensor_type;location;lat;lon;timestamp;pressure;altitude;pressure_sealevel;temperature;humidity
54806;BME280;62866;55.776;37.496;2022-11-06T00:00:37;101042.72;;;0.69;75.47
54806;BME280;62866;55.776;37.496;2022-11-06T00:03:03;101036.44;;;0.71;75.21
54806;BME280;62866;55.776;37.496;2022-11-06T00:05:30;101039.63;;;0.76;75.52
54806;BME280;62866;55.776;37.496;2022-11-06T00:08:14;101036.91;;;0.78;75.10
54806;BME280;62866;55.776;37.496;2022-11-06T00:10:40;101037.75;;;0.79;75.07
54806;BME280;62866;55.776;37.496;2022-11-06T00:13:06;101036.13;;;0.76;75.20
54806;BME280;62866;55.776;37.496;2022-11-06T00:15:32;101030.16;;;0.74;74.93
54806;BME280;62866;55.776;37.496;2022-11-06T00:17:58;101030.03;;;0.75;74.97
54806;BME280;62866;55.776;37.496;2022-11-06T00:20:24;101035.50;;;0.72;74.75
54806;BME280;62866;55.776;37.496;2022-11-06T00:22:49;101032.97;;;0.71;75.17
54806;BME280;62866;55.776;37.496;2022-11-06T00:25:15;101026.47;;;0.62;75.23
54806;BME280;62866;55.776;37.496;2022-11-06T00:27:40;101027.88;;;0.68;75.31
54806;BME280;62866;55.776;37.496;2022-11-06T00:30:08;101030.31;;;0.71;75.36
54806;BME280;62866;55.776;37.496;2022-11-06T00:32:36;101028.63;;;0.70;75.30
54806;BME280;62866;55.776;37.496;2022-11-06T00:35:02;101029.09;;;0.76;75.48
54806;BME280;62866;55.776;37.496;2022-11-06T00:37:27;101037.75;;;0.79;75.26
54806;BME280;62866;55.776;37.496;2022-11-06T00:39:53;101030.50;;;0.68;75.36
54806;BME280;62866;55.776;37.496;2022-11-06T00:42:18;101032.03;;;0.72;75.64
54806;BME280;62866;55.776;37.496;2022-11-06T00:44:44;101032.47;;;0.79;75.22
54806;BME280;62866;55.776;37.496;2022-11-06T00:47:09;101035.56;;;0.85;75.21
54806;BME280;62866;55.776;37.496;2022-11-06T00:49:37;101037.47;;;0.83;75.16
54806;BME280;62866;55.776;37.496;2022-11-06T00:52:03;101044.22;;;0.87;75.11
54806;BME280;62866;55.776;37.496;2022-11-06T00:54:29;101036.31;;;0.87;75.17
54806;BME280;62866;55.776;37.496;2022-11-06T00:56:55;101030.31;;;0.85;75.06
54806;BME280;62866;55.776;37.496;2022-11-06T00:59:20;101033.78;;;0.86;75.01
54806;BME280;62866;55.776;37.496;2022-11-06T01:01:46;101037.25;;;0.86;75.12
54806;BME280;62866;55.776;37.496;2022-11-06T01:04:20;101044.59;;;0.81;75.10
54806;BME280;62866;55.776;37.496;2022-11-06T01:06:49;101046.31;;;0.82;75.35
54806;BME280;62866;55.776;37.496;2022-11-06T01:09:18;101051.09;;;0.90;75.33
54806;BME280;62866;55.776;37.496;2022-11-06T01:11:47;101043.19;;;0.90;74.90
54806;BME280;62866;55.776;37.496;2022-11-06T01:14:15;101055.97;;;0.96;74.93
54806;BME280;62866;55.776;37.496;2022-11-06T01:16:42;101042.53;;;0.86;75.27
54806;BME280;62866;55.776;37.496;2022-11-06T01:19:10;101054.94;;;0.84;75.60
54806;BME280;62866;55.776;37.496;2022-11-06T01:21:38;101055.91;;;0.83;75.29
54806;BME280;62866;55.776;37.496;2022-11-06T01:24:15;101055.91;;;0.83;75.54
54806;BME280;62866;55.776;37.496;2022-11-06T01:26:41;101050.63;;;0.83;74.93
54806;BME280;62866;55.776;37.496;2022-11-06T01:29:11;101040.28;;;0.80;75.22
54806;BME280;62866;55.776;37.496;2022-11-06T01:31:37;101059.16;;;0.87;74.93
54806;BME280;62866;55.776;37.496;2022-11-06T01:34:04;101048.56;;;0.74;74.90
54806;BME280;62866;55.776;37.496;2022-11-06T01:36:30;101049.28;;;0.76;75.27
54806;BME280;62866;55.776;37.496;2022-11-06T01:38:58;101054.56;;;0.62;75.25
54806;BME280;62866;55.776;37.496;2022-11-06T01:41:27;101051.84;;;0.63;75.46
54806;BME280;62866;55.776;37.496;2022-11-06T01:43:53;101042.94;;;0.66;75.47
54806;BME280;62866;55.776;37.496;2022-11-06T01:46:21;101026.00;;;0.56;75.58
54806;BME280;62866;55.776;37.496;2022-11-06T01:48:50;101015.28;;;0.45;75.69
54806;BME280;62866;55.776;37.496;2022-11-06T01:51:18;101026.28;;;0.51;75.80
54806;BME280;62866;55.776;37.496;2022-11-06T01:53:44;101028.16;;;0.63;76.00
54806;BME280;62866;55.776;37.496;2022-11-06T01:56:11;101020.94;;;0.67;75.66
54806;BME280;62866;55.776;37.496;2022-11-06T01:58:40;100989.44;;;0.51;75.64
54806;BME280;62866;55.776;37.496;2022-11-06T02:01:06;101021.22;;;0.62;75.50
54806;BME280;62866;55.776;37.496;2022-11-06T02:03:33;101022.59;;;0.68;76.05
54806;BME280;62866;55.776;37.496;2022-11-06T02:06:00;101009.66;;;0.65;75.69
54806;BME280;62866;55.776;37.496;2022-11-06T02:08:27;101013.03;;;0.67;75.74
54806;BME280;62866;55.776;37.496;2022-11-06T02:10:53;101015.75;;;0.80;75.89
54806;BME280;62866;55.776;37.496;2022-11-06T02:16:23;101020.34;;;0.76;75.44
54806;BME280;62866;55.776;37.496;2022-11-06T02:21:58;101019.13;;;0.82;75.26
54806;BME280;62866;55.776;37.496;2022-11-06T02:24:54;101021.84;;;0.80;74.97
54806;BME280;62866;55.776;37.496;2022-11-06T02:27:23;101022.25;;;0.74;75.41
54806;BME280;62866;55.776;37.496;2022-11-06T02:30:01;101023.66;;;0.65;75.31
54806;BME280;62866;55.776;37.496;2022-11-06T02:32:53;101013.31;;;0.62;75.53
54806;BME280;62866;55.776;37.496;2022-11-06T02:35:23;101023.66;;;0.65;75.68
54806;BME280;62866;55.776;37.496;2022-11-06T02:37:56;101014.00;;;0.66;75.72
54806;BME280;62866;55.776;37.496;2022-11-06T02:40:26;101008.06;;;0.62;75.31
54806;BME280;62866;55.776;37.496;2022-11-06T02:42:58;101017.47;;;0.66;75.59
54806;BME280;62866;55.776;37.496;2022-11-06T02:45:26;101014.34;;;0.74;75.24
54806;BME280;62866;55.776;37.496;2022-11-06T02:47:54;100995.75;;;0.63;74.92
54806;BME280;62866;55.776;37.496;2022-11-06T02:50:25;101025.06;;;0.71;74.89
54806;BME280;62866;55.776;37.496;2022-11-06T02:52:54;101025.16;;;0.69;75.02
54806;BME280;62866;55.776;37.496;2022-11-06T02:55:36;101024.22;;;0.70;75.35
54806;BME280;62866;55.776;37.496;2022-11-06T02:58:07;101028.09;;;0.65;74.84
54806;BME280;62866;55.776;37.496;2022-11-06T03:00:34;101023.66;;;0.65;75.25
54806;BME280;62866;55.776;37.496;2022-11-06T03:03:32;101007.88;;;0.65;75.08
54806;BME280;62866;55.776;37.496;2022-11-06T03:06:26;101016.72;;;0.64;75.00
54806;BME280;62866;55.776;37.496;2022-11-06T03:08:55;101011.91;;;0.57;74.77
54806;BME280;62866;55.776;37.496;2022-11-06T03:11:25;101012.94;;;0.54;75.18
54806;BME280;62866;55.776;37.496;2022-11-06T03:14:15;101022.00;;;0.50;75.01
54806;BME280;62866;55.776;37.496;2022-11-06T03:17:10;101017.44;;;0.52;75.12
54806;BME280;62866;55.776;37.496;2022-11-06T03:19:53;101013.72;;;0.56;75.08
54806;BME280;62866;55.776;37.496;2022-11-06T03:22:53;101015.09;;;0.62;75.02
54806;BME280;62866;55.776;37.496;2022-11-06T03:25:20;101011.25;;;0.53;74.94
54806;BME280;62866;55.776;37.496;2022-11-06T03:30:15;101007.31;;;0.46;74.90
54806;BME280;62866;55.776;37.496;2022-11-06T03:32:53;101023.28;;;0.43;74.91
54806;BME280;62866;55.776;37.496;2022-11-06T03:35:36;100993.03;;;0.08;74.89
54806;BME280;62866;55.776;37.496;2022-11-06T03:38:09;101015.56;;;0.12;75.33
54806;BME280;62866;55.776;37.496;2022-11-06T03:40:40;101013.09;;;0.09;75.31
54806;BME280;62866;55.776;37.496;2022-11-06T03:43:09;101015.09;;;0.05;75.49
54806;BME280;62866;55.776;37.496;2022-11-06T03:45:39;101006.81;;;-0.03;75.05
54806;BME280;62866;55.776;37.496;2022-11-06T03:48:20;101008.75;;;-0.21;75.35
54806;BME280;62866;55.776;37.496;2022-11-06T03:51:15;101011.53;;;-0.24;75.35
54806;BME280;62866;55.776;37.496;2022-11-06T03:53:50;101018.41;;;-0.21;75.65
54806;BME280;62866;55.776;37.496;2022-11-06T03:56:37;101018.03;;;-0.15;75.00
54806;BME280;62866;55.776;37.496;2022-11-06T03:59:06;101019.34;;;-0.22;74.71
54806;BME280;62866;55.776;37.496;2022-11-06T04:01:36;101011.00;;;-0.15;74.65
54806;BME280;62866;55.776;37.496;2022-11-06T04:04:20;101010.06;;;-0.14;74.64
54806;BME280;62866;55.776;37.496;2022-11-06T04:06:52;101011.41;;;-0.07;74.60
54806;BME280;62866;55.776;37.496;2022-11-06T04:09:21;101009.31;;;-0.16;74.97
54806;BME280;62866;55.776;37.496;2022-11-06T04:12:08;101007.06;;;-0.08;74.62
54806;BME280;62866;55.776;37.496;2022-11-06T04:14:55;101008.59;;;-0.04;73.97
54806;BME280;62866;55.776;37.496;2022-11-06T04:17:25;101005.78;;;-0.01;74.31
54806;BME280;62866;55.776;37.496;2022-11-06T04:19:57;101011.13;;;-0.02;74.03
54806;BME280;62866;55.776;37.496;2022-11-06T04:22:47;101005.50;;;-0.10;74.34
54806;BME280;62866;55.776;37.496;2022-11-06T04:31:07;101009.44;;;-0.03;74.17
54806;BME280;62866;55.776;37.496;2022-11-06T04:33:49;101004.09;;;-0.02;74.27
54806;BME280;62866;55.776;37.496;2022-11-06T04:36:45;101005.88;;;-0.02;73.85
54806;BME280;62866;55.776;37.496;2022-11-06T04:41:51;101021.34;;;-0.12;74.30
54806;BME280;62866;55.776;37.496;2022-11-06T04:44:30;101023.28;;;-0.15;74.23
54806;BME280;62866;55.776;37.496;2022-11-06T04:47:01;101014.06;;;-0.36;74.20
54806;BME280;62866;55.776;37.496;2022-11-06T04:49:30;101025.22;;;-0.33;74.63
54806;BME280;62866;55.776;37.496;2022-11-06T04:51:57;101024.06;;;-0.43;74.80
54806;BME280;62866;55.776;37.496;2022-11-06T04:54:24;101023.44;;;-0.32;75.02
54806;BME280;62866;55.776;37.496;2022-11-06T04:56:50;101031.84;;;-0.26;75.14
54806;BME280;62866;55.776;37.496;2022-11-06T04:59:17;101029.00;;;-0.23;74.84
54806;BME280;62866;55.776;37.496;2022-11-06T05:01:43;101022.72;;;-0.20;74.82
54806;BME280;62866;55.776;37.496;2022-11-06T05:04:10;101028.84;;;-0.20;74.82
54806;BME280;62866;55.776;37.496;2022-11-06T05:06:35;101028.38;;;-0.12;74.80
54806;BME280;62866;55.776;37.496;2022-11-06T05:09:01;101027.94;;;-0.05;74.36
54806;BME280;62866;55.776;37.496;2022-11-06T05:11:26;101016.88;;;0.05;74.21
54806;BME280;62866;55.776;37.496;2022-11-06T05:13:52;101023.53;;;0.10;73.89
54806;BME280;62866;55.776;37.496;2022-11-06T05:16:17;101035.75;;;0.11;74.13
54806;BME280;62866;55.776;37.496;2022-11-06T05:18:43;101027.84;;;-0.03;74.25
54806;BME280;62866;55.776;37.496;2022-11-06T05:21:09;101031.13;;;0.00;74.65
54806;BME280;62866;55.776;37.496;2022-11-06T05:23:53;101030.16;;;-0.13;74.59
54806;BME280;62866;55.776;37.496;2022-11-06T05:26:19;101035.25;;;-0.10;74.78
54806;BME280;62866;55.776;37.496;2022-11-06T05:28:44;101036.19;;;-0.11;74.85
54806;BME280;62866;55.776;37.496;2022-11-06T05:31:10;101031.19;;;-0.15;75.09
54806;BME280;62866;55.776;37.496;2022-11-06T05:33:35;101032.34;;;-0.05;74.87
54806;BME280;62866;55.776;37.496;2022-11-06T05:36:03;101027.69;;;0.00;74.90
54806;BME280;62866;55.776;37.496;2022-11-06T05:38:29;101008.84;;;-0.08;74.69
54806;BME280;62866;55.776;37.496;2022-11-06T05:40:54;101025.13;;;-0.02;74.84
54806;BME280;62866;55.776;37.496;2022-11-06T05:43:20;101007.56;;;-0.01;74.65
54806;BME280;62866;55.776;37.496;2022-11-06T05:45:45;101009.66;;;0.08;74.56
54806;BME280;62866;55.776;37.496;2022-11-06T05:48:11;101009.53;;;0.10;74.55
54806;BME280;62866;55.776;37.496;2022-11-06T05:50:36;101006.19;;;0.22;74.42
54806;BME280;62866;55.776;37.496;2022-11-06T05:53:02;101011.16;;;0.26;74.55
54806;BME280;62866;55.776;37.496;2022-11-06T05:55:27;101005.25;;;0.37;74.09
54806;BME280;62866;55.776;37.496;2022-11-06T05:57:53;101003.16;;;0.42;73.95
54806;BME280;62866;55.776;37.496;2022-11-06T06:00:18;101010.13;;;0.29;73.83
54806;BME280;62866;55.776;37.496;2022-11-06T06:02:44;101013.69;;;0.42;74.10
54806;BME280;62866;55.776;37.496;2022-11-06T06:05:10;100999.97;;;0.51;73.72
54806;BME280;62866;55.776;37.496;2022-11-06T06:07:35;100994.63;;;0.53;73.38
54806;BME280;62866;55.776;37.496;2022-11-06T06:10:01;100998.69;;;0.58;73.37
54806;BME280;62866;55.776;37.496;2022-11-06T06:12:27;100999.78;;;0.68;73.27
54806;BME280;62866;55.776;37.496;2022-11-06T06:14:52;101000.63;;;0.69;73.23
54806;BME280;62866;55.776;37.496;2022-11-06T06:17:18;100984.56;;;0.73;73.10
54806;BME280;62866;55.776;37.496;2022-11-06T06:19:45;100996.88;;;0.73;73.43
54806;BME280;62866;55.776;37.496;2022-11-06T06:22:11;101005.69;;;0.72;73.39
54806;BME280;62866;55.776;37.496;2022-11-06T06:24:36;100996.84;;;0.59;73.61
54806;BME280;62866;55.776;37.496;2022-11-06T06:27:02;101000.72;;;0.53;73.51
54806;BME280;62866;55.776;37.496;2022-11-06T06:29:28;101001.28;;;0.44;74.19
54806;BME280;62866;55.776;37.496;2022-11-06T06:31:54;100999.97;;;0.37;74.39
54806;BME280;62866;55.776;37.496;2022-11-06T06:34:19;101001.03;;;0.49;74.15
54806;BME280;62866;55.776;37.496;2022-11-06T06:36:49;100997.91;;;0.56;73.77
54806;BME280;62866;55.776;37.496;2022-11-06T06:39:15;100993.50;;;0.57;73.67
54806;BME280;62866;55.776;37.496;2022-11-06T06:41:40;100990.28;;;0.52;73.71
54806;BME280;62866;55.776;37.496;2022-11-06T06:44:06;100980.63;;;0.52;74.08
54806;BME280;62866;55.776;37.496;2022-11-06T06:46:32;100992.00;;;0.67;74.01
54806;BME280;62866;55.776;37.496;2022-11-06T06:48:57;100995.63;;;0.79;73.92
54806;BME280;62866;55.776;37.496;2022-11-06T06:51:23;100999.56;;;0.86;73.67
54806;BME280;62866;55.776;37.496;2022-11-06T06:53:48;101004.31;;;0.93;73.50
54806;BME280;62866;55.776;37.496;2022-11-06T06:56:14;101000.56;;;0.97;73.19
54806;BME280;62866;55.776;37.496;2022-11-06T06:58:40;101004.81;;;1.00;72.89
54806;BME280;62866;55.776;37.496;2022-11-06T07:01:05;100998.97;;;0.95;73.04
54806;BME280;62866;55.776;37.496;2022-11-06T07:03:35;100996.34;;;0.95;73.24
54806;BME280;62866;55.776;37.496;2022-11-06T07:06:02;101000.84;;;0.93;72.86
54806;BME280;62866;55.776;37.496;2022-11-06T07:08:28;100998.16;;;0.80;73.35
54806;BME280;62866;55.776;37.496;2022-11-06T07:11:00;101006.53;;;0.72;73.41
54806;BME280;62866;55.776;37.496;2022-11-06T07:13:26;101003.06;;;0.72;73.92
54806;BME280;62866;55.776;37.496;2022-11-06T07:15:51;101004.66;;;0.60;73.86
54806;BME280;62866;55.776;37.496;2022-11-06T07:18:17;101003.34;;;0.67;74.02
54806;BME280;62866;55.776;37.496;2022-11-06T07:20:42;101006.72;;;0.84;73.68
54806;BME280;62866;55.776;37.496;2022-11-06T07:23:08;101008.47;;;0.97;72.91
54806;BME280;62866;55.776;37.496;2022-11-06T07:25:34;101012.34;;;0.92;73.05
54806;BME280;62866;55.776;37.496;2022-11-06T07:28:05;101009.06;;;0.88;73.15
54806;BME280;62866;55.776;37.496;2022-11-06T07:30:32;101007.09;;;0.92;72.75
54806;BME280;62866;55.776;37.496;2022-11-06T07:33:04;101006.78;;;0.96;72.47
54806;BME280;62866;55.776;37.496;2022-11-06T07:35:31;101002.28;;;0.98;72.50
54806;BME280;62866;55.776;37.496;2022-11-06T07:37:57;100996.78;;;1.01;72.56
54806;BME280;62866;55.776;37.496;2022-11-06T07:40:22;101003.03;;;1.00;72.35
54806;BME280;62866;55.776;37.496;2022-11-06T07:42:48;101000.56;;;0.97;72.39
54806;BME280;62866;55.776;37.496;2022-11-06T07:45:13;100996.16;;;0.98;72.12
54806;BME280;62866;55.776;37.496;2022-11-06T07:47:39;100988.69;;;1.04;72.60
54806;BME280;62866;55.776;37.496;2022-11-06T07:50:05;100997.97;;;1.10;71.99
54806;BME280;62866;55.776;37.496;2022-11-06T07:52:31;100986.47;;;0.98;72.26
54806;BME280;62866;55.776;37.496;2022-11-06T07:54:58;100985.72;;;0.96;72.68
54806;BME280;62866;55.776;37.496;2022-11-06T07:57:23;100980.81;;;1.04;72.38
54806;BME280;62866;55.776;37.496;2022-11-06T07:59:49;100989.59;;;0.91;72.80
54806;BME280;62866;55.776;37.496;2022-11-06T08:02:14;100985.19;;;0.91;73.24
54806;BME280;62866;55.776;37.496;2022-11-06T08:04:41;100986.03;;;0.92;73.00
54806;BME280;62866;55.776;37.496;2022-11-06T08:07:07;100979.09;;;0.62;72.86
54806;BME280;62866;55.776;37.496;2022-11-06T08:09:32;100983.81;;;0.57;73.63
54806;BME280;62866;55.776;37.496;2022-11-06T08:11:58;100976.41;;;0.50;74.13
54806;BME280;62866;55.776;37.496;2022-11-06T08:14:23;100984.75;;;0.56;73.99
54806;BME280;62866;55.776;37.496;2022-11-06T08:16:49;100990.56;;;0.61;74.32
54806;BME280;62866;55.776;37.496;2022-11-06T08:19:14;100985.66;;;0.84;73.88
54806;BME280;62866;55.776;37.496;2022-11-06T08:21:40;100991.38;;;0.90;73.26
54806;BME280;62866;55.776;37.496;2022-11-06T08:24:05;100990.59;;;1.02;73.27
54806;BME280;62866;55.776;37.496;2022-11-06T08:26:32;100989.38;;;1.08;72.60
54806;BME280;62866;55.776;37.496;2022-11-06T08:28:58;100990.78;;;0.99;72.46
54806;BME280;62866;55.776;37.496;2022-11-06T08:31:24;100987.41;;;0.97;72.55
54806;BME280;62866;55.776;37.496;2022-11-06T08:33:50;100986.91;;;1.05;72.29
54806;BME280;62866;55.776;37.496;2022-11-06T08:36:15;100999.16;;;1.06;72.59
54806;BME280;62866;55.776;37.496;2022-11-06T08:38:41;101000.09;;;1.05;72.50
54806;BME280;62866;55.776;37.496;2022-11-06T08:41:11;100994.22;;;1.14;72.74
54806;BME280;62866;55.776;37.496;2022-11-06T08:43:37;100981.06;;;1.14;72.48
54806;BME280;62866;55.776;37.496;2022-11-06T08:46:04;100989.50;;;1.19;72.38
54806;BME280;62866;55.776;37.496;2022-11-06T08:48:30;100980.16;;;1.28;72.25
54806;BME280;62866;55.776;37.496;2022-11-06T08:50:56;100973.75;;;1.05;72.70
54806;BME280;62866;55.776;37.496;2022-11-06T08:53:21;100981.25;;;1.11;72.70
54806;BME280;62866;55.776;37.496;2022-11-06T08:55:47;100982.84;;;1.13;72.93
54806;BME280;62866;55.776;37.496;2022-11-06T08:58:12;100977.13;;;1.07;72.95
54806;BME280;62866;55.776;37.496;2022-11-06T09:00:39;100983.09;;;0.96;73.39
54806;BME280;62866;55.776;37.496;2022-11-06T09:03:08;100959.72;;;1.04;73.22
54806;BME280;62866;55.776;37.496;2022-11-06T09:05:34;100972.81;;;1.33;72.67
54806;BME280;62866;55.776;37.496;2022-11-06T09:08:00;100970.25;;;1.31;72.14
54806;BME280;62866;55.776;37.496;2022-11-06T09:10:26;100972.19;;;1.42;72.02
54806;BME280;62866;55.776;37.496;2022-11-06T09:12:52;100970.16;;;1.33;71.93
54806;BME280;62866;55.776;37.496;2022-11-06T09:15:18;100965.13;;;1.42;71.66
54806;BME280;62866;55.776;37.496;2022-11-06T09:17:45;100963.63;;;1.38;71.90
54806;BME280;62866;55.776;37.496;2022-11-06T09:20:12;100964.50;;;1.39;72.00
54806;BME280;62866;55.776;37.496;2022-11-06T09:22:38;100973.38;;;1.50;71.89
54806;BME280;62866;55.776;37.496;2022-11-06T09:25:04;100968.50;;;1.44;71.23
54806;BME280;62866;55.776;37.496;2022-11-06T09:27:30;100955.41;;;1.30;72.13
54806;BME280;62866;55.776;37.496;2022-11-06T09:29:56;100953.00;;;1.40;72.33
54806;BME280;62866;55.776;37.496;2022-11-06T09:32:22;100953.44;;;1.59;71.74
54806;BME280;62866;55.776;37.496;2022-11-06T09:34:48;100958.78;;;1.32;70.66
54806;BME280;62866;55.776;37.496;2022-11-06T09:37:14;100947.84;;;1.11;72.17
54806;BME280;62866;55.776;37.496;2022-11-06T09:39:39;100938.16;;;1.12;72.77
54806;BME280;62866;55.776;37.496;2022-11-06T09:47:25;100935.66;;;1.50;72.07
54806;BME280;62866;55.776;37.496;2022-11-06T09:49:54;100938.50;;;1.72;71.32
54806;BME280;62866;55.776;37.496;2022-11-06T09:52:31;100940.72;;;1.78;70.97
54806;BME280;62866;55.776;37.496;2022-11-06T09:55:14;100929.09;;;1.68;70.82
54806;BME280;62866;55.776;37.496;2022-11-06T09:57:53;100929.56;;;1.75;71.18
54806;BME280;62866;55.776;37.496;2022-11-06T10:00:19;100928.28;;;1.93;70.62
54806;BME280;62866;55.776;37.496;2022-11-06T10:03:02;100930.59;;;1.85;70.55
54806;BME280;62866;55.776;37.496;2022-11-06T10:05:32;100930.50;;;1.74;70.65
54806;BME280;62866;55.776;37.496;2022-11-06T10:08:05;100932.19;;;1.75;70.57
54806;BME280;62866;55.776;37.496;2022-11-06T10:10:43;100930.19;;;1.78;70.59
54806;BME280;62866;55.776;37.496;2022-11-06T10:13:22;100926.06;;;1.74;70.29
54806;BME280;62866;55.776;37.496;2022-11-06T10:24:41;100932.78;;;1.53;71.23
54806;BME280;62866;55.776;37.496;2022-11-06T10:27:16;100917.81;;;1.41;71.05
54806;BME280;62866;55.776;37.496;2022-11-06T10:37:51;100921.56;;;1.37;71.31
54806;BME280;62866;55.776;37.496;2022-11-06T10:40:25;100914.50;;;1.25;71.39
54806;BME280;62866;55.776;37.496;2022-11-06T10:45:27;100928.34;;;1.41;71.00
54806;BME280;62866;55.776;37.496;2022-11-06T10:47:57;100928.34;;;1.41;70.69
54806;BME280;62866;55.776;37.496;2022-11-06T10:50:31;100933.03;;;1.23;70.95
54806;BME280;62866;55.776;37.496;2022-11-06T10:53:11;100921.94;;;1.18;71.32
54806;BME280;62866;55.776;37.496;2022-11-06T10:58:18;100920.31;;;1.30;71.20
54806;BME280;62866;55.776;37.496;2022-11-06T11:00:45;100911.13;;;1.35;70.92
54806;BME280;62866;55.776;37.496;2022-11-06T11:03:32;100918.47;;;1.18;70.93
54806;BME280;62866;55.776;37.496;2022-11-06T11:05:58;100915.53;;;1.22;71.22
54806;BME280;62866;55.776;37.496;2022-11-06T11:13:41;100909.78;;;1.42;70.33
54806;BME280;62866;55.776;37.496;2022-11-06T11:16:19;100901.25;;;1.39;70.85
54806;BME280;62866;55.776;37.496;2022-11-06T11:18:47;100891.75;;;1.36;70.55
54806;BME280;62866;55.776;37.496;2022-11-06T11:21:24;100894.38;;;1.36;71.02
54806;BME280;62866;55.776;37.496;2022-11-06T11:26:27;100892.31;;;1.41;71.13
54806;BME280;62866;55.776;37.496;2022-11-06T11:28:55;100895.66;;;1.43;70.71
54806;BME280;62866;55.776;37.496;2022-11-06T11:31:33;100893.16;;;1.42;70.88
54806;BME280;62866;55.776;37.496;2022-11-06T11:34:04;100886.19;;;1.41;70.79
54806;BME280;62866;55.776;37.496;2022-11-06T11:37:04;100892.19;;;1.43;71.18
54806;BME280;62866;55.776;37.496;2022-11-06T11:39:36;100892.63;;;1.49;70.75
54806;BME280;62866;55.776;37.496;2022-11-06T11:47:33;100884.81;;;1.48;70.78
54806;BME280;62866;55.776;37.496;2022-11-06T11:52:41;100880.41;;;1.48;70.96
54806;BME280;62866;55.776;37.496;2022-11-06T11:55:20;100888.19;;;1.63;70.25
54806;BME280;62866;55.776;37.496;2022-11-06T11:57:48;100879.97;;;1.55;70.04
54806;BME280;62866;55.776;37.496;2022-11-06T12:00:20;100880.16;;;1.51;70.01
54806;BME280;62866;55.776;37.496;2022-11-06T12:03:12;100876.81;;;1.49;70.30
54806;BME280;62866;55.776;37.496;2022-11-06T12:05:39;100874.06;;;1.51;69.88
54806;BME280;62866;55.776;37.496;2022-11-06T12:08:20;100868.69;;;1.40;69.84
54806;BME280;62866;55.776;37.496;2022-11-06T12:10:47;100870.47;;;1.39;69.63
54806;BME280;62866;55.776;37.496;2022-11-06T12:13:23;100872.88;;;1.30;70.55
54806;BME280;62866;55.776;37.496;2022-11-06T12:15:49;100868.78;;;1.38;70.08
54806;BME280;62866;55.776;37.496;2022-11-06T12:18:22;100855.72;;;1.37;69.97
54806;BME280;62866;55.776;37.496;2022-11-06T12:20:57;100860.97;;;1.37;70.00
54806;BME280;62866;55.776;37.496;2022-11-06T12:23:28;100857.06;;;1.30;70.37
54806;BME280;62866;55.776;37.496;2022-11-06T12:26:05;100859.91;;;1.27;70.28
54806;BME280;62866;55.776;37.496;2022-11-06T12:28:35;100854.31;;;1.19;70.21
54806;BME280;62866;55.776;37.496;2022-11-06T12:31:08;100858.63;;;1.20;70.49
54806;BME280;62866;55.776;37.496;2022-11-06T12:33:38;100862.88;;;1.22;70.72
54806;BME280;62866;55.776;37.496;2022-11-06T12:36:07;100858.72;;;1.18;70.39
54806;BME280;62866;55.776;37.496;2022-11-06T12:38:39;100847.84;;;1.10;70.55
54806;BME280;62866;55.776;37.496;2022-11-06T12:41:10;100847.66;;;1.00;71.01
54806;BME280;62866;55.776;37.496;2022-11-06T12:43:44;100842.50;;;0.99;71.03
54806;BME280;62866;55.776;37.496;2022-11-06T13:02:32;100845.38;;;0.82;71.80
54806;BME280;62866;55.776;37.496;2022-11-06T13:08:02;100846.41;;;0.79;71.57
54806;BME280;62866;55.776;37.496;2022-11-06T13:16:07;100848.03;;;0.82;71.66
54806;BME280;62866;55.776;37.496;2022-11-06T13:18:55;100852.44;;;0.81;71.62
54806;BME280;62866;55.776;37.496;2022-11-06T13:23:56;100847.78;;;0.85;71.71
54806;BME280;62866;55.776;37.496;2022-11-06T13:28:59;100836.22;;;0.74;71.77
54806;BME280;62866;55.776;37.496;2022-11-06T13:31:40;100847.03;;;0.70;71.73
54806;BME280;62866;55.776;37.496;2022-11-06T13:34:17;100831.06;;;0.59;72.62
54806;BME280;62866;55.776;37.496;2022-11-06T13:36:43;100831.91;;;0.59;72.46
54806;BME280;62866;55.776;37.496;2022-11-06T13:39:18;100841.16;;;0.52;72.44
54806;BME280;62866;55.776;37.496;2022-11-06T13:41:47;100814.72;;;0.41;72.51
54806;BME280;62866;55.776;37.496;2022-11-06T13:44:13;100829.59;;;0.55;72.47
54806;BME280;62866;55.776;37.496;2022-11-06T13:50:11;100836.34;;;0.32;73.02
54806;BME280;62866;55.776;37.496;2022-11-06T13:53:04;100833.81;;;0.30;73.09
54806;BME280;62866;55.776;37.496;2022-11-06T13:56:03;100828.63;;;0.29;73.04
54806;BME280;62866;55.776;37.496;2022-11-06T13:58:47;100828.91;;;0.38;72.99
54806;BME280;62866;55.776;37.496;2022-11-06T14:04:15;100833.00;;;0.43;72.66
54806;BME280;62866;55.776;37.496;2022-11-06T14:06:51;100832.78;;;0.33;73.44
54806;BME280;62866;55.776;37.496;2022-11-06T14:09:20;100831.44;;;0.40;73.15
54806;BME280;62866;55.776;37.496;2022-11-06T14:11:52;100839.59;;;0.35;73.54
54806;BME280;62866;55.776;37.496;2022-11-06T14:16:44;100827.38;;;0.49;73.41
54806;BME280;62866;55.776;37.496;2022-11-06T14:19:21;100833.47;;;0.49;73.36
54806;BME280;62866;55.776;37.496;2022-11-06T14:21:52;100827.06;;;0.53;73.40
54806;BME280;62866;55.776;37.496;2022-11-06T14:24:29;100819.25;;;0.52;73.92
54806;BME280;62866;55.776;37.496;2022-11-06T14:26:56;100823.44;;;0.42;74.10
54806;BME280;62866;55.776;37.496;2022-11-06T14:29:50;100826.72;;;0.45;74.22
54806;BME280;62866;55.776;37.496;2022-11-06T14:34:46;100824.75;;;0.49;74.15
54806;BME280;62866;55.776;37.496;2022-11-06T14:42:35;100819.06;;;0.55;73.87
54806;BME280;62866;55.776;37.496;2022-11-06T14:47:36;100810.75;;;0.48;73.85
54806;BME280;62866;55.776;37.496;2022-11-06T14:57:51;100798.22;;;0.52;73.85
54806;BME280;62866;55.776;37.496;2022-11-06T15:00:57;100797.38;;;0.51;73.84